Time;durP1;ratioP1;P1;durP2;ratioP2;P2;SDS_P1;SDS_P2;PMS_P1;PMS_P2;Temp;Humidity;BMP_temperature;BMP_pressure;BME280_temperature;BME280_humidity;BME280_pressure;Samples;Min_cycle;Max_cycle;Signal;HPM_P1;HPM_P2
2022/06/14 00:01:11;;;;;;;11.43;3.53;;;;;;;-145.69;100.00;72226.28;4996385;28;20208;-82
2022/06/14 00:03:40;;;;;;;11.10;3.07;;;;;;;-145.69;100.00;72194.44;4996601;28;20208;-82
2022/06/14 00:06:08;;;;;;;7.93;3.00;;;;;;;-145.69;100.00;72194.44;4996442;28;20232;-82
2022/06/14 00:08:36;;;;;;;11.37;3.13;;;;;;;-145.69;100.00;72198.41;4996319;28;20202;-81
2022/06/14 00:11:07;;;;;;;8.43;3.23;;;;;;;-145.69;100.00;72204.38;4995998;28;20233;-82
2022/06/14 00:13:34;;;;;;;6.60;2.57;;;;;;;-145.69;100.00;72218.31;4994993;28;20201;-82
2022/06/14 00:16:02;;;;;;;7.75;3.08;;;;;;;-145.69;100.00;72234.25;4995654;28;20915;-85
2022/06/14 00:18:29;;;;;;;7.13;3.27;;;;;;;-145.69;100.00;72242.22;4995815;28;20202;-82
2022/06/14 00:20:56;;;;;;;8.90;4.07;;;;;;;-145.69;100.00;72250.16;4995889;28;20664;-82
2022/06/14 00:23:22;;;;;;;7.87;2.70;;;;;;;-145.69;100.00;72254.16;4995813;28;20657;-82
2022/06/14 00:25:52;;;;;;;6.10;3.20;;;;;;;-145.69;100.00;72258.13;4996101;28;20563;-82
2022/06/14 00:28:20;;;;;;;7.20;3.30;;;;;;;-145.69;100.00;72256.13;4995914;28;20202;-83
2022/06/14 00:30:50;;;;;;;5.73;3.20;;;;;;;-145.69;100.00;72268.06;4996023;28;20237;-84
2022/06/14 00:33:18;;;;;;;11.33;3.23;;;;;;;-145.69;100.00;72274.06;4995513;28;20563;-84
2022/06/14 00:35:45;;;;;;;7.70;3.30;;;;;;;-145.69;100.00;72289.97;4995933;28;20201;-83
2022/06/14 00:38:13;;;;;;;6.37;2.97;;;;;;;-145.69;100.00;72291.97;4995199;28;20201;-83
2022/06/14 00:40:41;;;;;;;8.20;3.43;;;;;;;-145.69;100.00;72289.97;4995423;28;20201;-84
2022/06/14 00:43:15;;;;;;;11.00;4.07;;;;;;;-145.69;100.00;72301.91;4995627;28;20661;-84
2022/06/14 00:46:13;;;;;;;9.60;3.90;;;;;;;-145.69;100.00;72268.06;4995920;28;20206;-84
2022/06/14 00:48:48;;;;;;;6.67;3.13;;;;;;;-145.69;100.00;72278.03;4935587;29;20210;-83
2022/06/14 00:51:18;;;;;;;8.20;3.30;;;;;;;-145.69;100.00;72284.00;4985049;28;20232;-83
2022/06/14 00:53:53;;;;;;;10.37;3.83;;;;;;;-145.69;100.00;72272.06;4995690;28;20537;-83
2022/06/14 00:56:25;;;;;;;6.13;2.87;;;;;;;-145.69;100.00;72287.97;4995424;28;20211;-83
2022/06/14 00:58:56;;;;;;;10.43;3.53;;;;;;;-145.69;100.00;72293.94;4994940;28;20240;-84
2022/06/14 01:01:26;;;;;;;5.73;3.10;;;;;;;-145.69;100.00;72309.88;4995189;28;20209;-83
2022/06/14 01:03:58;;;;;;;7.25;4.18;;;;;;;-145.69;100.00;72303.91;4994377;28;20441;-82
2022/06/14 01:06:31;;;;;;;5.00;3.50;;;;;;;-145.69;100.00;72313.84;4995173;28;20564;-83
2022/06/14 01:09:01;;;;;;;9.57;3.17;;;;;;;-145.69;100.00;72317.84;4995423;28;20300;-83
2022/06/14 01:11:32;;;;;;;7.43;3.63;;;;;;;-145.69;100.00;72321.81;4994774;28;20695;-83
2022/06/14 01:14:00;;;;;;;4.17;3.00;;;;;;;-145.69;100.00;72329.78;4975503;28;20202;-84
2022/06/14 01:16:27;;;;;;;7.33;3.50;;;;;;;-145.69;100.00;72317.84;4975783;28;20209;-85
2022/06/14 01:18:55;;;;;;;7.37;3.60;;;;;;;-145.69;100.00;72303.91;4994163;28;20212;-86
2022/06/14 01:21:21;;;;;;;10.40;4.00;;;;;;;-145.69;100.00;72289.97;4995072;28;20202;-85
2022/06/14 01:23:50;;;;;;;10.20;4.50;;;;;;;-145.69;100.00;72268.06;4995028;28;20216;-84
2022/06/14 01:26:19;;;;;;;16.27;3.90;;;;;;;-145.69;100.00;72254.16;4992524;28;20228;-84
2022/06/14 01:28:49;;;;;;;7.03;3.87;;;;;;;-145.69;100.00;72258.13;4994116;28;20198;-85
2022/06/14 01:31:18;;;;;;;8.80;3.40;;;;;;;-145.69;100.00;72258.13;4995611;28;20225;-84
2022/06/14 01:33:49;;;;;;;10.77;3.43;;;;;;;-145.69;100.00;72254.16;4994754;28;20671;-84
2022/06/14 01:36:20;;;;;;;7.13;3.10;;;;;;;-145.69;100.00;72252.16;4994969;28;20296;-83
2022/06/14 01:38:50;;;;;;;9.47;3.50;;;;;;;-145.69;100.00;72266.09;4994621;28;20209;-83
2022/06/14 01:41:30;;;;;;;8.03;3.83;;;;;;;-145.69;100.00;72270.06;4993935;28;20688;-84
2022/06/14 01:44:10;;;;;;;6.67;3.20;;;;;;;-145.69;100.00;72278.03;4994539;28;20228;-83
2022/06/14 01:46:46;;;;;;;10.20;3.27;;;;;;;-145.69;100.00;72301.91;4994545;28;20279;-84
2022/06/14 01:52:18;;;;;;;5.77;3.07;;;;;;;-145.69;100.00;72345.69;4994388;28;20248;-85
2022/06/14 01:54:55;;;;;;;9.63;4.27;;;;;;;-145.69;100.00;72353.66;4994424;28;20205;-83
2022/06/14 01:57:30;;;;;;;13.27;3.37;;;;;;;-145.69;100.00;72347.69;4994433;28;20240;-84
2022/06/14 02:00:03;;;;;;;13.30;4.20;;;;;;;-145.69;100.00;72329.78;4994459;28;20205;-84
2022/06/14 02:02:37;;;;;;;11.77;4.20;;;;;;;-145.69;100.00;72329.78;4994026;28;20204;-83
2022/06/14 02:05:12;;;;;;;8.40;3.87;;;;;;;-145.69;100.00;72333.75;4994317;28;20288;-83
2022/06/14 02:07:49;;;;;;;8.23;4.00;;;;;;;-145.69;100.00;72353.66;4994180;28;20208;-83
2022/06/14 02:10:24;;;;;;;11.33;3.97;;;;;;;-145.69;100.00;72355.66;4994009;28;20221;-83
2022/06/14 02:12:57;;;;;;;7.33;4.13;;;;;;;-145.69;100.00;72351.66;4994208;28;20210;-82
2022/06/14 02:15:30;;;;;;;12.70;3.90;;;;;;;-145.69;100.00;72351.66;4994133;28;20206;-82
2022/06/14 02:18:04;;;;;;;10.43;4.55;;;;;;;-145.69;100.00;72365.59;4993002;28;20858;-83
2022/06/14 02:20:36;;;;;;;7.27;3.67;;;;;;;-145.69;100.00;72381.53;4993938;28;20205;-82
2022/06/14 02:23:05;;;;;;;7.10;3.97;;;;;;;-145.69;100.00;72389.50;4993945;28;20218;-83
2022/06/14 02:25:36;;;;;;;7.80;3.40;;;;;;;-145.69;100.00;72391.47;4994202;28;20201;-83
2022/06/14 02:28:08;;;;;;;14.00;4.20;;;;;;;-145.69;100.00;72391.47;4993902;28;20201;-83
2022/06/14 02:30:50;;;;;;;10.60;3.73;;;;;;;-145.69;100.00;72391.47;4993857;28;20237;-83
2022/06/14 02:33:23;;;;;;;8.83;3.90;;;;;;;-145.69;100.00;72377.53;4993794;28;20201;-82
2022/06/14 02:35:57;;;;;;;6.20;4.17;;;;;;;-145.69;100.00;72385.50;4993964;28;20237;-83
2022/06/14 02:38:28;;;;;;;9.40;3.83;;;;;;;-145.69;100.00;72393.47;4993354;28;20676;-82
2022/06/14 02:41:01;;;;;;;10.03;4.20;;;;;;;-145.69;100.00;72395.47;4994125;28;20202;-82
2022/06/14 02:43:33;;;;;;;5.67;3.90;;;;;;;-145.69;100.00;72395.47;4993258;28;20208;-82
2022/06/14 02:46:03;;;;;;;9.27;4.20;;;;;;;-145.69;100.00;72385.50;4993973;28;20208;-82
2022/06/14 02:48:35;;;;;;;10.23;4.50;;;;;;;-145.69;100.00;72377.53;4993659;28;20568;-82
2022/06/14 02:51:07;;;;;;;11.23;4.40;;;;;;;-145.69;100.00;72377.53;4993981;28;20225;-82
2022/06/14 02:53:38;;;;;;;14.40;4.53;;;;;;;-145.69;100.00;72385.50;4995188;28;20205;-82
2022/06/14 02:56:11;;;;;;;9.83;3.87;;;;;;;-145.69;100.00;72393.47;4995151;28;20204;-82
2022/06/14 02:58:46;;;;;;;8.37;3.93;;;;;;;-145.69;100.00;72409.38;4995585;28;20212;-82
2022/06/14 03:01:17;;;;;;;10.23;4.13;;;;;;;-145.69;100.00;72411.38;4995185;28;20663;-83
2022/06/14 03:03:50;;;;;;;12.63;4.40;;;;;;;-145.69;100.00;72409.38;4993122;28;20198;-83
2022/06/14 03:06:25;;;;;;;12.27;4.27;;;;;;;-145.69;100.00;72401.44;4993852;28;20695;-81
2022/06/14 03:08:57;;;;;;;15.07;4.27;;;;;;;-145.69;100.00;72395.47;4993622;28;20204;-83
2022/06/14 03:11:35;;;;;;;9.73;4.87;;;;;;;-145.69;100.00;72389.50;4993545;28;20696;-82
2022/06/14 03:14:11;;;;;;;8.63;4.00;;;;;;;-145.69;100.00;72393.47;4994087;28;20212;-83
2022/06/14 03:16:48;;;;;;;15.07;4.67;;;;;;;-145.69;100.00;72397.44;4993881;28;20208;-83
2022/06/14 03:19:28;;;;;;;9.20;4.53;;;;;;;-145.69;100.00;72405.41;4994001;28;20289;-83
2022/06/14 03:21:58;;;;;;;9.30;4.33;;;;;;;-145.69;100.00;72405.41;4993021;28;20205;-82
2022/06/14 03:24:35;;;;;;;9.93;4.33;;;;;;;-145.69;100.00;72413.38;4993821;28;20209;-83
2022/06/14 03:27:13;;;;;;;7.93;4.50;;;;;;;-145.69;100.00;72397.44;4993469;28;20201;-81
2022/06/14 03:29:44;;;;;;;11.13;4.47;;;;;;;-145.69;100.00;72385.50;4992298;28;20207;-82
2022/06/14 03:32:17;;;;;;;12.57;5.03;;;;;;;-145.69;100.00;72385.50;4993164;28;20232;-83
2022/06/14 03:34:49;;;;;;;14.33;5.53;;;;;;;-145.69;100.00;72371.56;4993381;28;20225;-83
2022/06/14 03:37:19;;;;;;;13.57;5.17;;;;;;;-145.69;100.00;72361.63;4992661;28;20256;-83
2022/06/14 03:39:50;;;;;;;12.67;4.67;;;;;;;-145.69;100.00;72357.66;4993377;28;20256;-84
2022/06/14 03:42:18;;;;;;;17.47;4.80;;;;;;;-145.69;100.00;72359.63;4993361;28;20206;-85
2022/06/14 03:44:45;;;;;;;11.53;4.80;;;;;;;-145.69;100.00;72359.63;4993623;28;20202;-84
2022/06/14 03:47:21;;;;;;;14.53;5.57;;;;;;;-145.69;100.00;72361.63;4993007;28;20268;-84
2022/06/14 03:49:56;;;;;;;13.90;5.07;;;;;;;-145.69;100.00;72355.66;4995530;28;20355;-85
2022/06/14 03:53:01;;;;;;;13.70;5.07;;;;;;;-145.69;100.00;72361.63;4996506;28;20291;-85
2022/06/14 03:55:48;;;;;;;13.77;4.27;;;;;;;-145.69;100.00;72371.56;4977531;28;20208;-85
2022/06/14 03:58:32;;;;;;;8.93;4.50;;;;;;;-145.69;100.00;72363.63;4977340;28;20217;-85
2022/06/14 04:01:04;;;;;;;7.77;4.80;;;;;;;-145.69;100.00;72367.59;4977551;28;20206;-85
2022/06/14 04:03:47;;;;;;;11.60;4.60;;;;;;;-145.69;100.00;72365.59;4977397;28;20206;-85
2022/06/14 04:06:28;;;;;;;12.82;6.18;;;;;;;-145.69;100.00;72363.63;4976014;28;20516;-85
2022/06/14 04:09:03;;;;;;;10.07;4.50;;;;;;;-145.69;100.00;72349.69;4986941;28;20209;-84
2022/06/14 04:11:41;;;;;;;11.73;4.73;;;;;;;-145.69;100.00;72353.66;4996655;28;20590;-84
2022/06/14 04:14:37;;;;;;;9.27;4.53;;;;;;;-145.69;100.00;72353.66;4996584;28;20291;-84
2022/06/14 04:17:13;;;;;;;9.30;5.10;;;;;;;-145.69;100.00;72349.69;4996352;28;20209;-85
2022/06/14 04:19:55;;;;;;;11.83;5.00;;;;;;;-145.69;100.00;72349.69;4996601;28;20193;-85
2022/06/14 04:22:27;;;;;;;15.17;5.20;;;;;;;-145.69;100.00;72337.75;4995075;28;20288;-84
2022/06/14 04:24:58;;;;;;;8.60;5.33;;;;;;;-145.69;100.00;72335.75;4996360;28;20252;-84
2022/06/14 04:27:34;;;;;;;12.13;5.33;;;;;;;-145.69;100.00;72307.88;4996056;28;20288;-83
2022/06/14 04:30:12;;;;;;;17.73;4.73;;;;;;;-145.69;100.00;72301.91;4976951;28;20280;-84
2022/06/14 04:32:46;;;;;;;15.93;6.00;;;;;;;-145.69;100.00;72297.94;4976712;28;20648;-85
2022/06/14 04:35:20;;;;;;;10.80;5.20;;;;;;;-145.69;100.00;72287.97;4976856;28;20216;-84
2022/06/14 04:37:52;;;;;;;12.47;6.03;;;;;;;-145.69;100.00;72274.06;4976300;28;20210;-84
2022/06/14 04:40:25;;;;;;;12.30;4.20;;;;;;;-145.69;100.00;72256.13;4976361;28;20210;-84
2022/06/14 04:42:57;;;;;;;10.07;4.93;;;;;;;-145.69;100.00;72246.19;4976418;28;20210;-84
2022/06/14 04:45:36;;;;;;;11.10;5.20;;;;;;;-145.69;100.00;72238.22;4976786;28;20202;-85
2022/06/14 04:48:07;;;;;;;12.37;5.23;;;;;;;-145.69;100.00;72224.28;4980175;28;20322;-83
2022/06/14 04:50:41;;;;;;;12.13;4.97;;;;;;;-145.69;100.00;72208.38;4995682;28;20268;-83
2022/06/14 04:53:13;;;;;;;9.03;5.17;;;;;;;-145.69;100.00;72198.41;4995531;28;20208;-83
2022/06/14 04:55:49;;;;;;;9.53;4.87;;;;;;;-145.69;100.00;72188.47;4995890;28;20209;-83
2022/06/14 04:58:21;;;;;;;12.10;4.73;;;;;;;-145.69;100.00;72174.53;4995428;28;20201;-84
2022/06/14 05:00:57;;;;;;;14.27;6.20;;;;;;;-145.69;100.00;72158.63;4994918;28;20675;-84
2022/06/14 05:03:32;;;;;;;17.93;5.47;;;;;;;-145.69;100.00;72146.69;4995432;28;20660;-84
2022/06/14 05:06:04;;;;;;;9.47;4.73;;;;;;;-145.69;100.00;72138.72;4995670;28;20208;-84
2022/06/14 05:08:35;;;;;;;8.90;4.70;;;;;;;-145.69;100.00;72126.78;4995032;28;20224;-85
2022/06/14 05:11:11;;;;;;;13.33;5.10;;;;;;;-145.69;100.00;72112.84;4995229;28;20256;-85
2022/06/14 05:13:46;;;;;;;8.13;4.80;;;;;;;-145.69;100.00;72086.97;4994897;28;20283;-84
2022/06/14 05:16:18;;;;;;;9.35;4.95;;;;;;;-145.69;100.00;72065.06;4994527;28;20816;-84
2022/06/14 05:18:50;;;;;;;8.63;4.43;;;;;;;-145.69;100.00;72049.16;4995536;28;20206;-84
2022/06/14 05:21:23;;;;;;;10.63;4.40;;;;;;;-145.69;100.00;72031.25;4995836;28;20193;-84
2022/06/14 05:23:52;;;;;;;13.10;5.20;;;;;;;-145.69;100.00;72015.31;4995268;28;20205;-83
2022/06/14 05:26:27;;;;;;;10.93;4.53;;;;;;;-145.69;100.00;71999.41;4995138;28;20209;-84
2022/06/14 05:29:07;;;;;;;12.57;4.67;;;;;;;-145.69;100.00;71969.53;4994871;28;20200;-84
2022/06/14 05:31:50;;;;;;;9.37;4.80;;;;;;;-145.69;100.00;71937.69;4995027;28;20256;-84
2022/06/14 05:34:37;;;;;;;13.50;4.53;;;;;;;-145.69;100.00;71915.81;4994845;28;20201;-84
2022/06/14 05:37:15;;;;;;;11.27;3.53;;;;;;;-145.69;100.00;71895.91;4994915;28;20209;-85
2022/06/14 05:39:49;;;;;;;10.57;3.70;;;;;;;-145.69;100.00;71838.19;4994421;28;20264;-84
2022/06/14 05:42:18;;;;;;;6.67;3.10;;;;;;;-145.69;100.00;71712.81;4994679;28;20197;-85
2022/06/14 05:44:48;;;;;;;7.95;3.33;;;;;;;-145.69;97.68;71599.41;4994582;28;20201;-85
2022/06/14 05:47:19;;;;;;;5.65;2.47;;;;;;;-145.69;91.62;71505.88;4994460;28;20243;-85
2022/06/14 05:49:52;;;;;;;5.55;2.47;;;;;;;-145.69;84.04;71366.56;4975376;28;20265;-83
2022/06/14 05:52:28;;;;;;;6.20;2.35;;;;;;;-145.69;74.31;71328.78;4975145;28;20265;-84
2022/06/14 05:55:01;;;;;;;6.88;2.05;;;;;;;-145.69;71.27;71213.38;4975083;28;20438;-84
2022/06/14 05:57:34;;;;;;;6.93;2.58;;;;;;;-145.69;64.98;71111.88;4974937;28;20304;-84
2022/06/14 06:00:10;;;;;;;12.60;2.72;;;;;;;-145.69;69.14;71123.81;4974859;28;20548;-84
2022/06/14 06:02:44;;;;;;;7.60;2.33;;;;;;;-145.69;64.52;71068.13;4977028;28;20743;-85
2022/06/14 06:05:15;;;;;;;5.47;1.90;;;;;;;-145.69;64.24;71058.16;4994645;28;20212;-85
2022/06/14 06:07:49;;;;;;;3.50;2.00;;;;;;;-145.69;59.83;70976.59;4994067;28;20206;-84
2022/06/14 06:10:22;;;;;;;8.02;2.70;;;;;;;-145.69;57.16;70922.88;4994313;28;20205;-83
2022/06/14 06:12:58;;;;;;;7.95;2.60;;;;;;;-145.69;62.73;71030.31;4993454;28;20237;-84
2022/06/14 06:15:29;;;;;;;4.47;1.85;;;;;;;-145.69;63.67;71050.22;4994249;28;20204;-85
2022/06/14 06:18:02;;;;;;;6.18;2.50;;;;;;;-145.69;62.29;71000.47;4994224;28;20201;-85
2022/06/14 06:20:36;;;;;;;6.40;2.45;;;;;;;-145.69;63.09;71093.97;4993980;28;20205;-85
2022/06/14 06:23:10;;;;;;;6.47;1.95;;;;;;;-145.69;64.96;71123.81;4993411;28;20730;-85
2022/06/14 06:25:41;;;;;;;4.97;2.00;;;;;;;-145.69;61.94;71092.00;4994047;28;20201;-83
2022/06/14 06:28:12;;;;;;;6.60;2.22;;;;;;;-145.69;63.86;71111.88;4993737;28;20202;-86
2022/06/14 06:30:43;;;;;;;5.60;2.33;;;;;;;-145.69;60.46;71068.13;4993962;28;20197;-87
2022/06/14 06:33:13;;;;;;;8.32;2.25;;;;;;;-145.69;64.94;71111.88;4994185;28;20229;-88
2022/06/14 06:35:47;;;;;;;5.28;2.10;;;;;;;-145.69;64.40;71086.03;4994073;28;20209;-87
2022/06/14 06:38:27;;;;;;;7.32;2.58;;;;;;;-145.69;61.03;71060.16;4993876;28;20208;-84
2022/06/14 06:43:44;;;;;;;3.67;1.65;;;;;;;-145.69;67.84;71117.84;4971507;28;20229;-84
2022/06/14 06:46:14;;;;;;;6.07;2.28;;;;;;;-145.69;66.14;71243.22;4994074;28;20205;-85
2022/06/14 06:48:46;;;;;;;7.10;2.20;;;;;;;-145.69;67.40;71153.66;4993649;28;20205;-84
2022/06/14 06:51:18;;;;;;;4.95;1.88;;;;;;;-145.69;69.64;71129.78;4993600;28;20240;-83
2022/06/14 06:53:54;;;;;;;8.13;2.00;;;;;;;-145.69;66.03;71149.69;4993392;28;20264;-84
2022/06/14 06:56:26;;;;;;;6.65;2.15;;;;;;;-145.69;66.77;71092.00;4974215;28;20202;-83
2022/06/14 06:58:56;;;;;;;7.20;1.92;;;;;;;-145.69;70.23;71111.88;4974285;28;20208;-85
2022/06/14 07:01:26;;;;;;;6.13;2.70;;;;;;;-145.69;74.75;71163.63;4974191;28;20205;-84
2022/06/14 07:04:02;;;;;;;5.40;2.50;;;;;;;-145.69;70.28;71127.81;4974460;28;20657;-84
2022/06/14 07:06:33;;;;;;;4.68;2.17;;;;;;;-145.69;68.73;71135.75;4974279;28;20205;-84
2022/06/14 07:09:06;;;;;;;6.03;2.70;;;;;;;-145.69;67.80;71147.69;4974161;28;20206;-81
2022/06/14 07:11:38;;;;;;;8.93;2.63;;;;;;;-145.69;72.22;71191.47;4973891;28;20561;-86
2022/06/14 07:14:10;;;;;;;8.30;3.42;;;;;;;-145.69;76.21;71189.47;4974667;28;20210;-84
2022/06/14 07:16:44;;;;;;;5.85;2.55;;;;;;;-145.69;70.39;71195.47;4993247;28;20236;-82
2022/06/14 07:19:23;;;;;;;9.27;2.60;;;;;;;-145.69;75.94;71223.31;4993900;28;20284;-82
2022/06/14 07:21:57;;;;;;;6.60;2.42;;;;;;;-145.69;69.41;71175.56;4993352;28;20683;-81
2022/06/14 07:24:31;;;;;;;6.70;2.17;;;;;;;-145.69;69.26;71151.69;4996723;28;20612;-81
2022/06/14 07:27:07;;;;;;;4.07;2.42;;;;;;;-145.69;68.74;71175.56;4997255;28;20200;-82
2022/06/14 07:29:37;;;;;;;4.65;1.95;;;;;;;-145.69;66.20;71155.66;4996936;28;20197;-82
2022/06/14 07:32:10;;;;;;;7.15;2.28;;;;;;;-145.69;69.26;71145.72;4997154;28;20236;-83
2022/06/14 07:34:40;;;;;;;6.78;2.47;;;;;;;-145.69;68.42;71115.88;4996638;28;20316;-81
2022/06/14 07:37:13;;;;;;;7.75;2.92;;;;;;;-145.69;68.59;71103.94;4997109;28;20197;-82
2022/06/14 07:39:44;;;;;;;5.97;2.50;;;;;;;-145.69;73.07;71076.06;4996947;28;20198;-81
2022/06/14 07:42:18;;;;;;;9.55;2.38;;;;;;;-145.69;63.58;71131.78;4996891;28;20210;-83
2022/06/14 07:44:56;;;;;;;7.28;2.53;;;;;;;-145.69;72.34;71099.94;4996438;28;20495;-82
2022/06/14 07:47:32;;;;;;;4.93;2.35;;;;;;;-145.69;62.92;71070.09;4996683;28;20316;-83
2022/06/14 07:50:08;;;;;;;5.72;2.50;;;;;;;-145.69;60.19;71121.84;4996794;28;20213;-84
2022/06/14 07:52:45;;;;;;;4.72;2.40;;;;;;;-145.69;62.49;71097.97;4996755;28;20233;-81
2022/06/14 07:55:21;;;;;;;8.43;2.00;;;;;;;-145.69;64.14;71078.06;4996713;28;20201;-81
2022/06/14 07:57:57;;;;;;;8.02;2.30;;;;;;;-145.69;68.59;71038.25;4996454;28;20295;-80
2022/06/14 08:03:22;;;;;;;6.93;2.20;;;;;;;-145.69;58.08;71010.41;4996609;28;20200;-80
2022/06/14 08:05:52;;;;;;;9.15;2.30;;;;;;;-145.69;64.70;71026.31;4996166;28;20667;-79
2022/06/14 08:08:22;;;;;;;5.45;2.38;;;;;;;-145.69;69.61;71088.00;4996394;28;20201;-83
2022/06/14 08:10:53;;;;;;;8.05;2.60;;;;;;;-145.69;69.27;71086.03;4996262;28;20213;-80
2022/06/14 08:13:26;;;;;;;7.78;2.85;;;;;;;-145.69;69.91;71060.16;4996449;28;20234;-80
2022/06/14 08:15:57;;;;;;;8.57;2.47;;;;;;;-145.69;66.15;71070.09;4996337;28;20207;-79
2022/06/14 08:18:30;;;;;;;10.02;2.22;;;;;;;-145.69;65.65;71060.16;4996373;28;20223;-76
2022/06/14 08:21:03;;;;;;;5.82;2.65;;;;;;;-145.69;65.60;71056.16;4995914;28;20197;-78
2022/06/14 08:23:35;;;;;;;8.25;2.97;;;;;;;-145.69;68.22;71084.03;4995052;28;20447;-80
2022/06/14 08:26:08;;;;;;;6.43;2.90;;;;;;;-145.69;68.57;71084.03;4996281;28;20202;-78
2022/06/14 08:28:50;;;;;;;9.00;2.75;;;;;;;-145.69;68.05;71074.09;4996089;28;20691;-82
2022/06/14 08:31:26;;;;;;;5.57;2.90;;;;;;;-145.69;67.14;71058.16;4995932;28;20667;-81
2022/06/14 08:33:57;;;;;;;4.68;2.08;;;;;;;-145.69;68.10;71052.19;4995612;28;20274;-80
2022/06/14 08:36:30;;;;;;;6.13;2.70;;;;;;;-145.69;64.34;71036.28;4995675;28;20206;-80
2022/06/14 08:39:03;;;;;;;6.30;2.65;;;;;;;-145.69;65.25;71018.38;4996008;28;20405;-79
2022/06/14 08:41:46;;;;;;;8.32;2.22;;;;;;;-145.69;60.30;71022.34;4995442;28;20289;-81
2022/06/14 08:44:19;;;;;;;8.40;2.80;;;;;;;-145.69;66.03;71024.34;4995754;28;20225;-81
2022/06/14 08:46:59;;;;;;;6.22;2.60;;;;;;;-145.69;61.01;71000.47;4995986;28;20232;-79
2022/06/14 08:49:43;;;;;;;8.95;2.75;;;;;;;-145.69;59.30;70996.47;4995811;28;20200;-81
2022/06/14 08:52:40;;;;;;;6.25;2.30;;;;;;;-145.69;62.24;71024.34;4995581;28;20205;-79
2022/06/14 08:55:29;;;;;;;5.75;2.40;;;;;;;-145.69;61.04;71012.41;4993111;28;20248;-79
2022/06/14 08:58:19;;;;;;;8.82;2.72;;;;;;;-145.69;62.36;71012.41;4995682;28;20198;-80
2022/06/14 09:00:57;;;;;;;6.35;2.33;;;;;;;-145.69;69.29;71024.34;4993049;28;20205;-81
2022/06/14 09:03:44;;;;;;;9.27;2.75;;;;;;;-145.69;63.14;71006.44;4995350;28;20193;-81
2022/06/14 09:06:57;;;;;;;8.95;2.83;;;;;;;-145.69;70.55;70956.69;4995371;28;20205;-81
2022/06/14 09:10:01;;;;;;;6.63;2.50;;;;;;;-145.69;63.74;70930.81;4995452;28;20201;-80
2022/06/14 09:13:10;;;;;;;6.72;2.95;;;;;;;-145.69;68.29;70930.81;4995174;28;20233;-80
2022/06/14 09:16:22;;;;;;;5.50;2.67;;;;;;;-145.69;63.65;70902.97;4995483;28;20210;-79
2022/06/14 09:19:00;;;;;;;9.27;2.78;;;;;;;-145.69;58.83;70873.13;4953957;29;20677;-80
2022/06/14 09:21:33;;;;;;;6.07;2.50;;;;;;;-145.69;56.60;70857.22;4949872;29;20750;-81
2022/06/14 09:24:14;;;;;;;7.78;2.47;;;;;;;-145.69;57.40;70835.31;4954138;28;20237;-78
2022/06/14 09:27:05;;;;;;;16.08;2.35;;;;;;;-145.69;46.92;70833.34;4975451;28;20220;-81
2022/06/14 09:29:55;;;;;;;5.57;1.80;;;;;;;-145.69;44.39;70817.41;4993643;28;20198;-79
2022/06/14 09:36:33;;;;;;;7.23;2.00;;;;;;;-145.69;49.63;70803.50;4989987;28;20551;-79
2022/06/14 09:39:23;;;;;;;3.55;1.77;;;;;;;-145.69;45.06;70793.53;4995021;28;20211;-79
2022/06/14 09:42:12;;;;;;;4.60;1.60;;;;;;;-145.69;50.49;70821.41;4994576;28;20197;-77
2022/06/14 09:45:08;;;;;;;8.30;2.08;;;;;;;-145.69;50.38;70799.50;4994570;28;20205;-79
2022/06/14 09:47:59;;;;;;;7.40;1.63;;;;;;;-145.69;47.24;70789.56;4994479;28;20244;-80
2022/06/14 09:50:46;;;;;;;5.18;2.05;;;;;;;-145.69;41.71;70821.41;4994630;28;20658;-79
2022/06/14 09:53:35;;;;;;;4.68;1.70;;;;;;;-145.69;44.23;70831.34;4994694;28;20233;-78
2022/06/14 09:56:23;;;;;;;3.88;1.50;;;;;;;-145.69;44.08;70853.22;4994437;28;20660;-79
2022/06/14 09:59:10;;;;;;;4.50;1.52;;;;;;;-145.69;45.93;70825.38;4991128;28;20214;-79
2022/06/14 10:01:45;;;;;;;5.50;1.85;;;;;;;-145.69;46.31;70837.31;4993901;28;20679;-79
2022/06/14 10:04:34;;;;;;;5.93;1.80;;;;;;;-145.69;47.52;70793.53;4994320;28;20201;-78
2022/06/14 10:07:36;;;;;;;7.15;2.10;;;;;;;-145.69;50.04;70765.69;4994254;28;20209;-77
2022/06/14 10:10:16;;;;;;;6.35;1.85;;;;;;;-145.69;54.03;70757.72;4971217;28;20960;-79
2022/06/14 10:13:01;;;;;;;3.40;1.83;;;;;;;-145.69;43.58;70757.72;4974553;28;20700;-80
2022/06/14 10:15:42;;;;;;;8.38;1.80;;;;;;;-145.69;42.10;70785.59;4991572;28;20200;-78
2022/06/14 10:18:27;;;;;;;3.92;1.95;;;;;;;-145.69;48.43;70749.78;4994168;28;20215;-80
2022/06/14 10:21:02;;;;;;;9.85;2.20;;;;;;;-145.69;48.00;70721.91;4994052;28;20683;-80
2022/06/14 10:24:06;;;;;;;5.95;1.90;;;;;;;-145.69;45.81;70765.69;4993964;28;20635;-80
2022/06/14 10:29:51;;;;;;;6.72;1.83;;;;;;;-145.69;42.97;70741.81;4993733;28;20212;-79
2022/06/14 10:32:45;;;;;;;6.30;1.70;;;;;;;-145.69;43.15;70676.16;4993860;28;20255;-79
2022/06/14 10:35:17;;;;;;;5.75;1.52;;;;;;;-145.69;40.05;70670.19;4993592;28;20197;-79
2022/06/14 10:38:06;;;;;;;6.50;1.75;;;;;;;-145.69;40.64;70694.06;4994021;28;20206;-80
2022/06/14 10:40:47;;;;;;;3.78;1.50;;;;;;;-145.69;40.98;70680.13;4993898;28;20588;-80
2022/06/14 10:43:21;;;;;;;4.20;1.75;;;;;;;-145.69;43.61;70684.13;4993875;28;20267;-77
2022/06/14 10:45:54;;;;;;;3.42;1.55;;;;;;;-145.69;44.35;70662.22;4993873;28;20200;-80
2022/06/14 10:48:59;;;;;;;4.50;1.23;;;;;;;-145.69;44.85;70640.34;4993672;28;20743;-79
2022/06/14 10:51:38;;;;;;;3.10;1.27;;;;;;;-145.69;46.21;70632.38;4993905;28;20672;-79
2022/06/14 10:54:12;;;;;;;5.38;1.40;;;;;;;-145.69;41.59;70618.47;4993450;28;20223;-79
2022/06/14 10:57:03;;;;;;;5.03;1.70;;;;;;;-145.69;38.91;70610.50;4993643;28;20207;-78
2022/06/14 10:59:58;;;;;;;3.03;1.33;;;;;;;-145.69;38.80;70642.34;4993172;28;20656;-79
2022/06/14 11:02:42;;;;;;;2.70;1.45;;;;;;;-145.69;39.13;70610.50;4988896;28;20538;-79
2022/06/14 11:05:24;;;;;;;3.88;1.45;;;;;;;-145.69;39.96;70576.69;4993436;28;20660;-78
2022/06/14 11:08:05;;;;;;;3.38;1.38;;;;;;;-145.69;40.98;70558.78;4993339;28;20263;-78
2022/06/14 11:10:59;;;;;;;2.00;1.30;;;;;;;-145.69;40.69;70552.81;4993554;28;20209;-77
2022/06/14 11:13:34;;;;;;;5.97;1.90;;;;;;;-145.69;39.39;70596.59;4993253;28;20271;-78
2022/06/14 11:16:05;;;;;;;2.47;1.40;;;;;;;-145.69;47.35;70556.78;4973934;28;20205;-78
2022/06/14 11:19:04;;;;;;;3.75;1.30;;;;;;;-145.69;44.43;70550.81;4974151;28;20210;-79
2022/06/14 11:21:45;;;;;;;3.67;1.67;;;;;;;-145.69;40.23;70501.09;4966828;28;20202;-78
2022/06/14 11:24:20;;;;;;;11.05;1.60;;;;;;;-145.69;37.80;70507.06;4973444;28;20209;-78
2022/06/14 11:26:57;;;;;;;7.70;1.85;;;;;;;-145.69;43.48;70483.19;4973843;28;20220;-79
2022/06/14 11:29:36;;;;;;;7.65;1.40;;;;;;;-145.69;42.10;70495.13;4973772;28;20736;-79
2022/06/14 11:32:09;;;;;;;6.07;1.48;;;;;;;-145.69;41.38;70495.13;4973909;28;20257;-79
2022/06/14 11:34:47;;;;;;;3.58;1.50;;;;;;;-145.69;37.01;70491.13;4985272;28;20631;-77
2022/06/14 11:37:37;;;;;;;4.20;1.67;;;;;;;-145.69;38.18;70479.19;4992825;28;20205;-79
2022/06/14 11:40:11;;;;;;;3.38;1.40;;;;;;;-145.69;39.23;70489.16;4993070;28;20567;-79
2022/06/14 11:42:56;;;;;;;4.43;1.65;;;;;;;-145.69;36.41;70461.31;4993211;28;20344;-78
2022/06/14 11:45:36;;;;;;;2.33;1.20;;;;;;;-145.69;39.01;70451.34;4993047;28;20217;-79
2022/06/14 11:48:18;;;;;;;3.10;1.50;;;;;;;-145.69;38.86;70447.38;4992954;28;20327;-79
2022/06/14 11:50:54;;;;;;;4.45;1.55;;;;;;;-145.69;39.54;70427.47;4973821;28;20206;-79
2022/06/14 11:53:49;;;;;;;4.25;1.55;;;;;;;-145.69;41.62;70425.50;4991491;28;20225;-79
2022/06/14 11:56:31;;;;;;;5.95;1.67;;;;;;;-145.69;36.44;70463.28;4993364;28;20573;-78
2022/06/14 11:59:22;;;;;;;3.80;1.60;;;;;;;-145.69;37.52;70455.34;4991755;28;20440;-76
2022/06/14 12:02:05;;;;;;;8.40;1.98;;;;;;;-145.69;44.14;70399.63;4992925;28;20292;-77
2022/06/14 12:04:44;;;;;;;3.67;1.52;;;;;;;-145.69;38.86;70345.91;4993068;28;20205;-78
2022/06/14 12:07:20;;;;;;;3.25;1.33;;;;;;;-145.69;41.59;70343.94;4993216;28;20212;-79
2022/06/14 12:10:20;;;;;;;3.35;1.30;;;;;;;-145.69;38.72;70335.97;4993391;28;20216;-78